createdAt,value
2018-03-16T00:00:50.215Z,18.61
2018-03-16T00:01:50.215Z,18.61
2018-03-16T00:02:50.225Z,18.66
2018-03-16T00:03:50.097Z,18.61
2018-03-16T00:04:50.131Z,18.6
2018-03-16T00:05:50.120Z,18.67
2018-03-16T00:06:50.117Z,18.58
2018-03-16T00:07:50.154Z,18.55
2018-03-16T00:08:50.124Z,18.64
2018-03-16T00:09:50.115Z,18.57
2018-03-16T00:10:50.102Z,18.64
2018-03-16T00:11:50.127Z,18.67
2018-03-16T00:12:50.103Z,18.59
2018-03-16T00:13:50.135Z,18.56
2018-03-16T00:14:50.113Z,18.65
2018-03-16T00:15:50.097Z,18.59
2018-03-16T00:16:50.108Z,18.54
2018-03-16T00:17:50.109Z,18.62
2018-03-16T00:18:50.127Z,18.55
2018-03-16T00:19:50.102Z,18.55
2018-03-16T00:20:50.124Z,18.62
2018-03-16T00:21:50.116Z,18.55
2018-03-16T00:22:50.100Z,18.53
2018-03-16T00:23:50.110Z,18.59
2018-03-16T00:24:50.120Z,18.55
2018-03-16T00:25:50.106Z,18.57
2018-03-16T00:26:50.109Z,18.62
2018-03-16T00:27:50.111Z,18.57
2018-03-16T00:28:50.111Z,18.57
2018-03-16T00:29:50.097Z,18.63
2018-03-16T00:30:50.100Z,18.53
2018-03-16T00:31:50.097Z,18.52
2018-03-16T00:32:50.090Z,18.58
2018-03-16T00:33:50.112Z,18.57
2018-03-16T00:34:50.096Z,18.58
2018-03-16T00:35:50.103Z,18.63
2018-03-16T00:36:50.103Z,18.54
2018-03-16T00:37:50.160Z,18.52
2018-03-16T00:38:50.133Z,18.58
2018-03-16T00:39:50.098Z,18.53
2018-03-16T00:40:50.160Z,18.51
2018-03-16T00:41:50.097Z,18.56
2018-03-16T00:42:50.077Z,18.55
2018-03-16T00:43:50.103Z,18.53
2018-03-16T00:44:50.100Z,18.58
2018-03-16T00:45:50.087Z,18.53
2018-03-16T00:46:50.133Z,18.53
2018-03-16T00:47:50.096Z,18.57
2018-03-16T00:48:50.094Z,18.52
2018-03-16T00:49:50.104Z,18.53
2018-03-16T00:50:50.091Z,18.6
2018-03-16T00:51:50.092Z,18.55
2018-03-16T00:52:50.101Z,18.51
2018-03-16T00:53:50.087Z,18.58
2018-03-16T00:54:50.092Z,18.56
2018-03-16T00:55:50.160Z,18.56
2018-03-16T00:56:50.087Z,18.58
2018-03-16T00:57:50.096Z,18.54
2018-03-16T00:58:50.171Z,18.53
2018-03-16T00:59:50.081Z,18.58
2018-03-16T01:00:50.082Z,18.51
2018-03-16T01:01:50.146Z,18.51
2018-03-16T01:02:50.087Z,18.54
2018-03-16T01:03:50.088Z,18.51
2018-03-16T01:04:51.206Z,18.51
2018-03-16T01:05:50.089Z,18.55
2018-03-16T01:06:50.098Z,18.53
2018-03-16T01:07:50.162Z,18.5
2018-03-16T01:08:50.189Z,18.57
2018-03-16T01:09:50.090Z,18.52
2018-03-16T01:10:50.161Z,18.54
2018-03-16T01:11:50.079Z,18.55
2018-03-16T01:12:50.085Z,18.53
2018-03-16T01:13:50.166Z,18.5
2018-03-16T01:14:50.080Z,18.54
2018-03-16T01:15:50.086Z,18.49
2018-03-16T01:16:50.108Z,18.53
2018-03-16T01:17:50.123Z,18.54
2018-03-16T01:18:50.091Z,18.49
2018-03-16T01:19:50.102Z,18.52
2018-03-16T01:20:50.100Z,18.54
2018-03-16T01:21:50.102Z,18.49
2018-03-16T01:22:50.085Z,18.49
2018-03-16T01:23:50.079Z,18.54
2018-03-16T01:24:50.072Z,18.48
2018-03-16T01:25:50.090Z,18.48
2018-03-16T01:26:50.083Z,18.51
2018-03-16T01:27:50.073Z,18.46
2018-03-16T01:28:50.105Z,18.51
2018-03-16T01:29:50.097Z,18.53
2018-03-16T01:30:50.090Z,18.49
2018-03-16T01:31:50.087Z,18.46
2018-03-16T01:32:50.103Z,18.5
2018-03-16T01:33:50.079Z,18.46
2018-03-16T01:34:50.248Z,18.46
2018-03-16T01:35:50.090Z,18.5
2018-03-16T01:36:50.084Z,18.47
2018-03-16T01:37:50.081Z,18.45
2018-03-16T01:38:50.085Z,18.48
2018-03-16T01:39:50.095Z,18.4
2018-03-16T01:40:50.096Z,18.44
2018-03-16T01:41:50.092Z,18.47
2018-03-16T01:42:50.094Z,18.44
2018-03-16T01:43:50.084Z,18.44
2018-03-16T01:44:50.100Z,18.48
2018-03-16T01:45:50.131Z,18.46
2018-03-16T01:46:50.079Z,18.44
2018-03-16T01:47:50.100Z,18.48
2018-03-16T01:48:50.065Z,18.44
2018-03-16T01:49:50.074Z,18.44
2018-03-16T01:50:50.087Z,18.47
2018-03-16T01:51:50.072Z,18.43
2018-03-16T01:52:50.076Z,18.43
2018-03-16T01:53:50.064Z,18.48
2018-03-16T01:54:50.064Z,18.42
2018-03-16T01:55:50.093Z,18.41
2018-03-16T01:56:50.067Z,18.44
2018-03-16T01:57:50.083Z,18.39
2018-03-16T01:58:50.090Z,18.38
2018-03-16T01:59:50.077Z,18.45
2018-03-16T02:00:50.078Z,18.37
2018-03-16T02:01:50.179Z,18.35
2018-03-16T02:02:50.181Z,18.43
2018-03-16T02:03:50.064Z,18.38
2018-03-16T02:04:50.077Z,18.37
2018-03-16T02:05:50.114Z,18.41
2018-03-16T02:06:50.065Z,18.37
2018-03-16T02:07:50.094Z,18.38
2018-03-16T02:08:50.073Z,18.42
2018-03-16T02:09:50.074Z,18.4
2018-03-16T02:10:50.112Z,18.37
2018-03-16T02:11:50.058Z,18.4
2018-03-16T02:12:50.097Z,18.4
2018-03-16T02:13:50.084Z,18.34
2018-03-16T02:14:50.058Z,18.4
2018-03-16T02:15:50.061Z,18.34
2018-03-16T02:16:50.072Z,18.32
2018-03-16T02:17:50.083Z,18.37
2018-03-16T02:18:50.074Z,18.34
2018-03-16T02:19:50.061Z,18.34
2018-03-16T02:20:50.067Z,18.37
2018-03-16T02:21:50.061Z,18.33
2018-03-16T02:22:50.071Z,18.32
2018-03-16T02:23:50.070Z,18.36
2018-03-16T02:24:50.112Z,18.28
2018-03-16T02:25:50.072Z,18.29
2018-03-16T02:26:50.063Z,18.35
2018-03-16T02:27:50.056Z,18.31
2018-03-16T02:28:50.126Z,18.33
2018-03-16T02:29:50.063Z,18.34
2018-03-16T02:30:50.060Z,18.33
2018-03-16T02:31:50.073Z,18.3
2018-03-16T02:32:50.052Z,18.34
2018-03-16T02:33:50.050Z,18.3
2018-03-16T02:34:50.065Z,18.25
2018-03-16T02:35:50.054Z,18.3
2018-03-16T02:36:50.061Z,18.26
2018-03-16T02:37:50.062Z,18.26
2018-03-16T02:38:50.051Z,18.32
2018-03-16T02:39:50.055Z,18.26
2018-03-16T02:40:50.076Z,18.26
2018-03-16T02:41:50.068Z,18.33
2018-03-16T02:42:50.101Z,18.28
2018-03-16T02:43:50.090Z,18.24
2018-03-16T02:44:50.051Z,18.3
2018-03-16T02:45:50.070Z,18.27
2018-03-16T02:46:50.064Z,18.23
2018-03-16T02:47:50.062Z,18.29
2018-03-16T02:48:50.069Z,18.24
2018-03-16T02:49:50.060Z,18.22
2018-03-16T02:50:49.894Z,18.29
2018-03-16T02:51:50.048Z,18.27
2018-03-16T02:52:50.062Z,18.24
2018-03-16T02:53:50.045Z,18.29
2018-03-16T02:54:50.066Z,18.23
2018-03-16T02:55:50.332Z,18.23
2018-03-16T02:56:50.052Z,18.3
2018-03-16T02:57:50.053Z,18.25
2018-03-16T02:58:50.115Z,18.24
2018-03-16T02:59:50.071Z,18.3
2018-03-16T03:00:50.080Z,18.24
2018-03-16T03:01:50.139Z,18.22
2018-03-16T03:02:50.049Z,18.27
2018-03-16T03:03:50.048Z,18.2
2018-03-16T03:04:50.044Z,18.21
2018-03-16T03:05:50.048Z,18.25
2018-03-16T03:06:50.073Z,18.24
2018-03-16T03:07:50.114Z,18.2
2018-03-16T03:08:50.051Z,18.26
2018-03-16T03:09:50.060Z,18.23
2018-03-16T03:10:50.061Z,18.23
2018-03-16T03:11:50.041Z,18.26
2018-03-16T03:12:50.044Z,18.22
2018-03-16T03:13:50.133Z,18.18
2018-03-16T03:14:50.050Z,18.25
2018-03-16T03:15:50.042Z,18.2
2018-03-16T03:16:50.128Z,18.21
2018-03-16T03:17:50.038Z,18.24
2018-03-16T03:18:50.033Z,18.21
2018-03-16T03:19:50.080Z,18.17
2018-03-16T03:20:50.080Z,18.22
2018-03-16T03:21:50.056Z,18.18
2018-03-16T03:22:50.048Z,18.21
2018-03-16T03:23:50.038Z,18.26
2018-03-16T03:24:50.046Z,18.19
2018-03-16T03:25:50.070Z,18.17
2018-03-16T03:26:50.228Z,18.22
2018-03-16T03:27:50.038Z,18.2
2018-03-16T03:28:50.049Z,18.16
2018-03-16T03:29:50.044Z,18.24
2018-03-16T03:30:50.046Z,18.2
2018-03-16T03:31:50.057Z,18.18
2018-03-16T03:32:50.126Z,18.21
2018-03-16T03:33:50.057Z,18.15
2018-03-16T03:34:50.032Z,18.15
2018-03-16T03:35:50.032Z,18.2
2018-03-16T03:36:50.037Z,18.17
2018-03-16T03:37:50.072Z,18.16
2018-03-16T03:38:50.030Z,18.21
2018-03-16T03:39:50.022Z,18.16
2018-03-16T03:40:50.088Z,18.13
2018-03-16T03:41:50.042Z,18.19
2018-03-16T03:42:50.055Z,18.17
2018-03-16T03:43:50.042Z,18.19
2018-03-16T03:44:50.036Z,18.21
2018-03-16T03:45:50.047Z,18.13
2018-03-16T03:46:50.041Z,18.15
2018-03-16T03:47:50.068Z,18.18
2018-03-16T03:48:50.030Z,18.16
2018-03-16T03:49:50.065Z,18.15
2018-03-16T03:50:50.042Z,18.2
2018-03-16T03:51:50.027Z,18.15
2018-03-16T03:52:50.063Z,18.14
2018-03-16T03:53:50.031Z,18.19
2018-03-16T03:54:50.024Z,18.14
2018-03-16T03:55:50.046Z,18.15
2018-03-16T03:56:50.015Z,18.18
2018-03-16T03:57:50.029Z,18.15
2018-03-16T03:58:50.034Z,18.11
2018-03-16T03:59:50.045Z,18.17
2018-03-16T04:00:50.020Z,18.15
2018-03-16T04:01:50.060Z,18.15
2018-03-16T04:02:50.177Z,18.17
2018-03-16T04:03:50.136Z,18.16
2018-03-16T04:04:50.106Z,18.14
2018-03-16T04:05:50.035Z,18.19
2018-03-16T04:06:50.041Z,18.13
2018-03-16T04:07:50.068Z,18.11
2018-03-16T04:08:50.040Z,18.15
2018-03-16T04:09:50.022Z,18.11
2018-03-16T04:10:50.066Z,18.13
2018-03-16T04:11:50.023Z,18.17
2018-03-16T04:12:50.028Z,18.12
2018-03-16T04:13:50.051Z,18.1
2018-03-16T04:14:50.036Z,18.14
2018-03-16T04:15:50.022Z,18.15
2018-03-16T04:16:50.032Z,18.12
2018-03-16T04:17:50.043Z,18.16
2018-03-16T04:18:50.065Z,18.11
2018-03-16T04:19:50.030Z,18.1
2018-03-16T04:20:50.035Z,18.13
2018-03-16T04:21:50.025Z,18.1
2018-03-16T04:22:50.030Z,18.11
2018-03-16T04:23:50.012Z,18.13
2018-03-16T04:24:50.032Z,18.11
2018-03-16T04:25:50.050Z,18.1
2018-03-16T04:26:50.035Z,18.13
2018-03-16T04:27:50.014Z,18.09
2018-03-16T04:28:50.028Z,18.1
2018-03-16T04:29:50.032Z,18.11
2018-03-16T04:30:50.024Z,18.1
2018-03-16T04:31:50.015Z,18.08
2018-03-16T04:32:50.036Z,18.11
2018-03-16T04:33:50.005Z,18.08
2018-03-16T04:34:50.031Z,18.07
2018-03-16T04:35:50.037Z,18.12
2018-03-16T04:36:50.050Z,18.08
2018-03-16T04:37:50.034Z,18.09
2018-03-16T04:38:50.033Z,18.12
2018-03-16T04:39:50.003Z,18.07
2018-03-16T04:40:50.025Z,18.04
2018-03-16T04:41:50.012Z,18.1
2018-03-16T04:42:50.026Z,18.04
2018-03-16T04:43:50.016Z,18.07
2018-03-16T04:44:50.019Z,18.1
2018-03-16T04:45:50.026Z,18.07
2018-03-16T04:46:50.047Z,18.07
2018-03-16T04:47:50.010Z,18.13
2018-03-16T04:48:50.032Z,18.08
2018-03-16T04:49:50.046Z,18.06
2018-03-16T04:50:50.016Z,18.13
2018-03-16T04:51:50.003Z,18.09
2018-03-16T04:52:50.025Z,18.08
2018-03-16T04:53:50.017Z,18.12
2018-03-16T04:54:50.019Z,18.07
2018-03-16T04:55:50.085Z,18.07
2018-03-16T04:56:50.026Z,18.1
2018-03-16T04:57:50.017Z,18.04
2018-03-16T04:58:50.016Z,18.06
2018-03-16T04:59:50.009Z,18.1
2018-03-16T05:00:50.011Z,18.05
2018-03-16T05:01:50.064Z,18.04
2018-03-16T05:02:50.056Z,18.11
2018-03-16T05:03:50.007Z,18.08
2018-03-16T05:04:50.023Z,18.08
2018-03-16T05:05:50.000Z,18.14
2018-03-16T05:06:50.059Z,18.12
2018-03-16T05:07:50.037Z,18.11
2018-03-16T05:08:50.038Z,18.15
2018-03-16T05:09:50.076Z,18.11
2018-03-16T05:10:50.033Z,18.11
2018-03-16T05:11:50.064Z,18.17
2018-03-16T05:12:50.029Z,18.14
2018-03-16T05:13:50.032Z,18.16
2018-03-16T05:14:50.074Z,18.2
2018-03-16T05:15:50.045Z,18.18
2018-03-16T05:16:50.014Z,18.21
2018-03-16T05:17:50.048Z,18.27
2018-03-16T05:18:50.055Z,18.25
2018-03-16T05:19:50.037Z,18.26
2018-03-16T05:20:50.047Z,18.33
2018-03-16T05:21:50.030Z,18.3
2018-03-16T05:22:50.042Z,18.32
2018-03-16T05:23:50.057Z,18.35
2018-03-16T05:24:50.063Z,18.36
2018-03-16T05:25:50.025Z,18.37
2018-03-16T05:26:50.076Z,18.43
2018-03-16T05:27:50.046Z,18.42
2018-03-16T05:28:50.019Z,18.42
2018-03-16T05:29:50.051Z,18.47
2018-03-16T05:30:50.067Z,18.46
2018-03-16T05:31:50.025Z,18.48
2018-03-16T05:32:50.045Z,18.52
2018-03-16T05:33:50.029Z,18.51
2018-03-16T05:34:50.039Z,18.51
2018-03-16T05:35:50.029Z,18.57
2018-03-16T05:36:50.081Z,18.55
2018-03-16T05:37:50.023Z,18.57
2018-03-16T05:38:50.047Z,18.63
2018-03-16T05:39:50.063Z,18.61
2018-03-16T05:40:50.018Z,18.6
2018-03-16T05:41:50.313Z,18.66
2018-03-16T05:42:50.036Z,18.64
2018-03-16T05:43:50.030Z,18.65
2018-03-16T05:44:50.039Z,18.69
2018-03-16T05:45:50.046Z,18.68
2018-03-16T05:46:50.043Z,18.68
2018-03-16T05:47:50.043Z,18.74
2018-03-16T05:48:50.040Z,18.72
2018-03-16T05:49:50.004Z,18.72
2018-03-16T05:50:50.031Z,18.75
2018-03-16T05:51:50.046Z,18.74
2018-03-16T05:52:50.015Z,18.75
2018-03-16T05:53:50.062Z,18.8
2018-03-16T05:54:50.049Z,18.78
2018-03-16T05:55:50.026Z,18.78
2018-03-16T05:56:50.035Z,18.81
2018-03-16T05:57:50.042Z,18.81
2018-03-16T05:58:50.010Z,18.83
2018-03-16T05:59:50.037Z,18.87
2018-03-16T06:00:50.118Z,18.84
2018-03-16T06:01:50.004Z,18.84
2018-03-16T06:02:50.054Z,18.88
2018-03-16T06:03:50.132Z,18.88
2018-03-16T06:04:50.101Z,18.88
2018-03-16T06:05:50.035Z,18.92
2018-03-16T06:06:50.032Z,18.9
2018-03-16T06:07:50.013Z,18.9
2018-03-16T06:08:50.053Z,18.96
2018-03-16T06:09:50.033Z,18.93
2018-03-16T06:10:50.027Z,18.93
2018-03-16T06:11:50.024Z,18.97
2018-03-16T06:12:50.023Z,18.96
2018-03-16T06:13:50.027Z,18.96
2018-03-16T06:14:50.044Z,19.01
2018-03-16T06:15:50.023Z,18.99
2018-03-16T06:16:50.012Z,18.99
2018-03-16T06:17:50.042Z,19.04
2018-03-16T06:18:50.269Z,19.01
2018-03-16T06:19:50.007Z,19.01
2018-03-16T06:20:50.035Z,19.06
2018-03-16T06:21:50.044Z,19.03
2018-03-16T06:22:49.992Z,19.03
2018-03-16T06:23:50.047Z,19.07
2018-03-16T06:24:50.029Z,19.05
2018-03-16T06:25:50.003Z,19.05
2018-03-16T06:26:50.033Z,19.09
2018-03-16T06:27:50.032Z,19.06
2018-03-16T06:28:50.038Z,19.08
2018-03-16T06:29:50.029Z,19.11
2018-03-16T06:30:50.025Z,19.07
2018-03-16T06:31:50.005Z,19.08
2018-03-16T06:32:50.022Z,19.12
2018-03-16T06:33:50.057Z,19.1
2018-03-16T06:34:49.998Z,19.09
2018-03-16T06:35:50.026Z,19.13
2018-03-16T06:36:50.058Z,19.1
2018-03-16T06:37:49.999Z,19.1
2018-03-16T06:38:50.021Z,19.15
2018-03-16T06:39:50.052Z,19.12
2018-03-16T06:40:49.992Z,19.12
2018-03-16T06:41:50.036Z,19.16
2018-03-16T06:42:50.020Z,19.14
2018-03-16T06:43:49.998Z,19.13
2018-03-16T06:44:50.135Z,19.16
2018-03-16T06:45:50.019Z,19.14
2018-03-16T06:46:49.993Z,19.13
2018-03-16T06:47:50.004Z,19.16
2018-03-16T06:48:50.017Z,19.14
2018-03-16T06:49:50.001Z,19.14
2018-03-16T06:50:50.032Z,19.17
2018-03-16T06:51:50.044Z,19.15
2018-03-16T06:52:50.056Z,19.15
2018-03-16T06:53:50.017Z,19.18
2018-03-16T06:54:50.016Z,19.16
2018-03-16T06:55:49.984Z,19.16
2018-03-16T06:56:50.029Z,19.19
2018-03-16T06:57:50.016Z,19.16
2018-03-16T06:58:49.991Z,19.15
2018-03-16T06:59:50.193Z,19.19
2018-03-16T07:00:50.013Z,19.16
2018-03-16T07:01:49.982Z,19.15
2018-03-16T07:02:50.017Z,19.19
2018-03-16T07:03:50.031Z,19.16
2018-03-16T07:04:50.014Z,19.16
2018-03-16T07:05:50.012Z,19.2
2018-03-16T07:06:50.036Z,19.17
2018-03-16T07:07:49.993Z,19.16
2018-03-16T07:08:50.006Z,19.2
2018-03-16T07:09:50.027Z,19.18
2018-03-16T07:10:49.989Z,19.16
2018-03-16T07:11:50.033Z,19.21
2018-03-16T07:12:50.013Z,19.16
2018-03-16T07:13:49.974Z,19.15
2018-03-16T07:14:50.010Z,19.19
2018-03-16T07:15:50.028Z,19.16
2018-03-16T07:16:49.980Z,19.15
2018-03-16T07:17:50.005Z,19.18
2018-03-16T07:18:50.004Z,19.16
2018-03-16T07:19:49.985Z,19.15
2018-03-16T07:20:50.015Z,19.18
2018-03-16T07:21:50.001Z,19.16
2018-03-16T07:22:50.022Z,19.13
2018-03-16T07:23:50.007Z,19.17
2018-03-16T07:24:50.003Z,19.14
2018-03-16T07:25:50.014Z,19.13
2018-03-16T07:26:50.021Z,19.17
2018-03-16T07:27:50.021Z,19.14
2018-03-16T07:28:49.981Z,19.13
2018-03-16T07:29:50.016Z,19.16
2018-03-16T07:30:50.065Z,19.13
2018-03-16T07:31:49.982Z,19.13
2018-03-16T07:32:50.072Z,19.17
2018-03-16T07:33:50.008Z,19.13
2018-03-16T07:34:49.986Z,19.12
2018-03-16T07:35:50.003Z,19.16
2018-03-16T07:36:50.008Z,19.14
2018-03-16T07:37:49.981Z,19.14
2018-03-16T07:38:50.014Z,19.16
2018-03-16T07:39:50.008Z,19.13
2018-03-16T07:40:49.970Z,19.12
2018-03-16T07:41:50.023Z,19.17
2018-03-16T07:42:50.014Z,19.13
2018-03-16T07:43:49.967Z,19.13
2018-03-16T07:44:50.040Z,19.16
2018-03-16T07:45:49.998Z,19.13
2018-03-16T07:46:50.043Z,19.12
2018-03-16T07:47:50.000Z,19.16
2018-03-16T07:48:50.006Z,19.13
2018-03-16T07:49:49.982Z,19.13
2018-03-16T07:50:50.037Z,19.17
2018-03-16T07:51:50.013Z,19.13
2018-03-16T07:52:49.997Z,19.14
2018-03-16T07:53:49.995Z,19.18
2018-03-16T07:54:50.023Z,19.14
2018-03-16T07:55:49.972Z,19.13
2018-03-16T07:56:49.993Z,19.17
2018-03-16T07:57:50.005Z,19.15
2018-03-16T07:58:49.968Z,19.14
2018-03-16T07:59:49.997Z,19.19
2018-03-16T08:00:49.993Z,19.15
2018-03-16T08:01:49.999Z,19.15
2018-03-16T08:02:49.993Z,19.18
2018-03-16T08:03:50.010Z,19.15
2018-03-16T08:04:50.075Z,19.14
2018-03-16T08:05:50.159Z,19.18
2018-03-16T08:06:50.023Z,19.14
2018-03-16T08:07:49.965Z,19.14
2018-03-16T08:08:50.072Z,19.18
2018-03-16T08:09:50.013Z,19.16
2018-03-16T08:10:49.966Z,19.15
2018-03-16T08:11:50.014Z,19.18
2018-03-16T08:12:50.001Z,19.15
2018-03-16T08:13:49.958Z,19.15
2018-03-16T08:14:49.992Z,19.21
2018-03-16T08:15:49.987Z,19.18
2018-03-16T08:16:49.967Z,19.16
2018-03-16T08:17:50.004Z,19.21
2018-03-16T08:18:49.994Z,19.18
2018-03-16T08:19:49.967Z,19.17
2018-03-16T08:20:49.986Z,19.22
2018-03-16T08:21:49.994Z,19.18
2018-03-16T08:22:49.966Z,19.17
2018-03-16T08:23:49.996Z,19.23
2018-03-16T08:24:50.003Z,19.19
2018-03-16T08:25:49.950Z,19.18
2018-03-16T08:26:49.987Z,19.23
2018-03-16T08:27:50.003Z,19.21
2018-03-16T08:28:49.966Z,19.19
2018-03-16T08:29:50.006Z,19.22
2018-03-16T08:30:49.996Z,19.2
2018-03-16T08:31:49.969Z,19.2
2018-03-16T08:32:49.987Z,19.25
2018-03-16T08:33:50.003Z,19.22
2018-03-16T08:34:49.969Z,19.22
2018-03-16T08:35:49.989Z,19.27
2018-03-16T08:36:49.986Z,19.23
2018-03-16T08:37:49.956Z,19.22
2018-03-16T08:38:49.983Z,19.27
2018-03-16T08:39:49.991Z,19.24
2018-03-16T08:40:49.975Z,19.24
2018-03-16T08:41:49.988Z,19.28
2018-03-16T08:42:49.979Z,19.25
2018-03-16T08:43:49.952Z,19.24
2018-03-16T08:44:49.985Z,19.29
2018-03-16T08:45:49.983Z,19.26
2018-03-16T08:46:49.973Z,19.25
2018-03-16T08:47:49.991Z,19.31
2018-03-16T08:48:50.008Z,19.27
2018-03-16T08:49:49.981Z,19.27
2018-03-16T08:50:49.974Z,19.31
2018-03-16T08:51:49.980Z,19.27
2018-03-16T08:52:49.952Z,19.28
2018-03-16T08:53:50.006Z,19.32
2018-03-16T08:54:49.981Z,19.28
2018-03-16T08:55:49.947Z,19.29
2018-03-16T08:56:49.979Z,19.33
2018-03-16T08:57:49.977Z,19.29
2018-03-16T08:58:49.998Z,19.29
2018-03-16T08:59:49.980Z,19.34
2018-03-16T09:00:49.984Z,19.31
2018-03-16T09:01:49.941Z,19.31
2018-03-16T09:02:49.999Z,19.36
2018-03-16T09:03:50.000Z,19.32
2018-03-16T09:04:49.954Z,19.31
2018-03-16T09:05:49.969Z,19.36
2018-03-16T09:06:49.975Z,19.33
2018-03-16T09:07:49.940Z,19.32
2018-03-16T09:08:49.998Z,19.36
2018-03-16T09:09:49.962Z,19.33
2018-03-16T09:10:49.948Z,19.33
2018-03-16T09:11:49.972Z,19.37
2018-03-16T09:12:49.992Z,19.34
2018-03-16T09:13:49.981Z,19.33
2018-03-16T09:14:49.979Z,19.39
2018-03-16T09:15:49.966Z,19.35
2018-03-16T09:16:49.950Z,19.35
2018-03-16T09:17:49.970Z,19.4
2018-03-16T09:18:49.965Z,19.36
2018-03-16T09:19:49.953Z,19.36
2018-03-16T09:20:49.980Z,19.4
2018-03-16T09:21:49.963Z,19.37
2018-03-16T09:22:49.940Z,19.36
2018-03-16T09:23:49.984Z,19.41
2018-03-16T09:24:49.970Z,19.38
2018-03-16T09:25:49.927Z,19.37
2018-03-16T09:26:49.971Z,19.41
2018-03-16T09:27:49.966Z,19.38
2018-03-16T09:28:49.948Z,19.37
2018-03-16T09:29:49.969Z,19.42
2018-03-16T09:30:49.967Z,19.38
2018-03-16T09:31:49.945Z,19.39
2018-03-16T09:32:49.963Z,19.44
2018-03-16T09:33:49.987Z,19.4
2018-03-16T09:34:49.984Z,19.39
2018-03-16T09:35:49.977Z,19.44
2018-03-16T09:36:49.966Z,19.41
2018-03-16T09:37:49.957Z,19.4
2018-03-16T09:38:49.999Z,19.42
2018-03-16T09:39:49.979Z,19.41
2018-03-16T09:40:49.928Z,19.4
2018-03-16T09:41:49.990Z,19.45
2018-03-16T09:42:49.959Z,19.41
2018-03-16T09:43:49.939Z,19.4
2018-03-16T09:44:49.967Z,19.45
2018-03-16T09:45:49.971Z,19.41
2018-03-16T09:46:49.930Z,19.4
2018-03-16T09:47:49.959Z,19.45
2018-03-16T09:48:49.953Z,19.41
2018-03-16T09:49:49.940Z,19.4
2018-03-16T09:50:49.957Z,19.45
2018-03-16T09:51:49.970Z,19.42
2018-03-16T09:52:49.953Z,19.4
2018-03-16T09:53:49.954Z,19.46
2018-03-16T09:54:49.955Z,19.42
2018-03-16T09:55:49.955Z,19.41
2018-03-16T09:56:50.005Z,19.45
2018-03-16T09:57:49.956Z,19.42
2018-03-16T09:58:49.935Z,19.41
2018-03-16T09:59:49.958Z,19.45
2018-03-16T10:00:49.953Z,19.42
2018-03-16T10:01:49.943Z,19.41
2018-03-16T10:02:49.962Z,19.46
2018-03-16T10:03:49.966Z,19.43
2018-03-16T10:04:49.937Z,19.43
2018-03-16T10:05:50.049Z,19.48
2018-03-16T10:06:50.075Z,19.43
2018-03-16T10:07:49.929Z,19.42
2018-03-16T10:08:49.951Z,19.45
2018-03-16T10:09:49.948Z,19.45
2018-03-16T10:10:49.920Z,19.43
2018-03-16T10:11:50.084Z,19.48
2018-03-16T10:12:49.944Z,19.44
2018-03-16T10:13:49.935Z,19.44
2018-03-16T10:14:49.950Z,19.48
2018-03-16T10:15:49.944Z,19.44
2018-03-16T10:16:49.951Z,19.44
2018-03-16T10:17:49.976Z,19.48
2018-03-16T10:18:50.018Z,19.45
2018-03-16T10:19:49.923Z,19.44
2018-03-16T10:20:49.950Z,19.47
2018-03-16T10:21:49.953Z,19.45
2018-03-16T10:22:49.940Z,19.44
2018-03-16T10:23:49.952Z,19.47
2018-03-16T10:24:49.967Z,19.45
2018-03-16T10:25:49.910Z,19.44
2018-03-16T10:26:49.967Z,19.48
2018-03-16T10:27:49.943Z,19.45
2018-03-16T10:28:49.928Z,19.44
2018-03-16T10:29:50.077Z,19.49
2018-03-16T10:30:49.941Z,19.45
2018-03-16T10:31:49.932Z,19.43
2018-03-16T10:32:49.796Z,19.48
2018-03-16T10:33:49.968Z,19.45
2018-03-16T10:34:49.954Z,19.43
2018-03-16T10:35:49.949Z,19.47
2018-03-16T10:36:49.963Z,19.43
2018-03-16T10:37:49.920Z,19.43
2018-03-16T10:38:49.947Z,19.46
2018-03-16T10:39:49.966Z,19.43
2018-03-16T10:40:49.933Z,19.43
2018-03-16T10:41:49.954Z,19.47
2018-03-16T10:42:49.984Z,19.43
2018-03-16T10:43:49.910Z,19.42
2018-03-16T10:44:49.965Z,19.44
2018-03-16T10:45:49.946Z,19.41
2018-03-16T10:46:49.953Z,19.42
2018-03-16T10:47:49.941Z,19.46
2018-03-16T10:48:49.999Z,19.42
2018-03-16T10:49:49.911Z,19.4
2018-03-16T10:50:49.968Z,19.45
2018-03-16T10:51:49.952Z,19.42
2018-03-16T10:52:49.916Z,19.4
2018-03-16T10:53:49.943Z,19.44
2018-03-16T10:54:49.941Z,19.41
2018-03-16T10:55:49.950Z,19.4
2018-03-16T10:56:49.958Z,19.43
2018-03-16T10:57:49.940Z,19.4
2018-03-16T10:58:49.925Z,19.41
2018-03-16T10:59:49.930Z,19.45
2018-03-16T11:00:49.953Z,19.41
2018-03-16T11:01:49.920Z,19.41
2018-03-16T11:02:49.943Z,19.44
2018-03-16T11:03:49.932Z,19.41
2018-03-16T11:04:49.911Z,19.39
2018-03-16T11:05:49.931Z,19.44
2018-03-16T11:06:49.932Z,19.4
2018-03-16T11:07:49.907Z,19.42
2018-03-16T11:08:49.928Z,19.44
2018-03-16T11:09:49.945Z,19.41
2018-03-16T11:10:49.918Z,19.39
2018-03-16T11:11:49.938Z,19.44
2018-03-16T11:12:49.929Z,19.41
2018-03-16T11:13:49.903Z,19.41
2018-03-16T11:14:49.930Z,19.45
2018-03-16T11:15:49.936Z,19.42
2018-03-16T11:16:49.943Z,19.41
2018-03-16T11:17:49.933Z,19.46
2018-03-16T11:18:49.925Z,19.43
2018-03-16T11:19:49.910Z,19.42
2018-03-16T11:20:49.930Z,19.46
2018-03-16T11:21:50.041Z,19.42
2018-03-16T11:22:49.949Z,19.42
2018-03-16T11:23:49.979Z,19.46
2018-03-16T11:24:49.934Z,19.42
2018-03-16T11:25:49.904Z,19.42
2018-03-16T11:26:50.000Z,19.46
2018-03-16T11:27:49.943Z,19.43
2018-03-16T11:28:49.902Z,19.43
2018-03-16T11:29:49.940Z,19.47
2018-03-16T11:30:49.933Z,19.42
2018-03-16T11:31:49.921Z,19.42
2018-03-16T11:32:49.920Z,19.47
2018-03-16T11:33:49.938Z,19.43
2018-03-16T11:34:49.898Z,19.43
2018-03-16T11:35:49.924Z,19.46
2018-03-16T11:36:49.926Z,19.44
2018-03-16T11:37:49.910Z,19.43
2018-03-16T11:38:49.924Z,19.48
2018-03-16T11:39:49.924Z,19.43
2018-03-16T11:40:49.917Z,19.42
2018-03-16T11:41:49.947Z,19.47
2018-03-16T11:42:49.933Z,19.44
2018-03-16T11:43:49.900Z,19.44
2018-03-16T11:44:49.924Z,19.48
2018-03-16T11:45:49.915Z,19.45
2018-03-16T11:46:49.909Z,19.44
2018-03-16T11:47:49.920Z,19.47
2018-03-16T11:48:49.922Z,19.44
2018-03-16T11:49:49.905Z,19.43
2018-03-16T11:50:49.920Z,19.48
2018-03-16T11:51:49.930Z,19.45
2018-03-16T11:52:49.892Z,19.45
2018-03-16T11:53:49.919Z,19.48
2018-03-16T11:54:49.930Z,19.46
2018-03-16T11:55:49.886Z,19.44
2018-03-16T11:56:49.924Z,19.49
2018-03-16T11:57:49.938Z,19.46
2018-03-16T11:58:49.892Z,19.46
2018-03-16T11:59:49.934Z,19.49
2018-03-16T12:00:49.894Z,19.46
2018-03-16T12:01:49.881Z,19.45
2018-03-16T12:02:49.905Z,19.5
2018-03-16T12:03:49.942Z,19.47
2018-03-16T12:04:49.889Z,19.46
2018-03-16T12:05:49.936Z,19.51
2018-03-16T12:06:50.008Z,19.48
2018-03-16T12:07:49.983Z,19.47
2018-03-16T12:08:49.935Z,19.49
2018-03-16T12:09:49.922Z,19.46
2018-03-16T12:10:49.939Z,19.47
2018-03-16T12:11:49.921Z,19.51
2018-03-16T12:12:49.916Z,19.48
2018-03-16T12:13:49.891Z,19.47
2018-03-16T12:14:49.912Z,19.51
2018-03-16T12:15:49.916Z,19.49
2018-03-16T12:16:49.893Z,19.48
2018-03-16T12:17:49.909Z,19.53
2018-03-16T12:18:49.910Z,19.48
2018-03-16T12:19:49.901Z,19.48
2018-03-16T12:20:49.915Z,19.52
2018-03-16T12:21:49.916Z,19.48
2018-03-16T12:22:49.889Z,19.48
2018-03-16T12:23:49.915Z,19.53
2018-03-16T12:24:49.926Z,19.48
2018-03-16T12:25:49.886Z,19.48
2018-03-16T12:26:49.942Z,19.52
2018-03-16T12:27:49.927Z,19.5
2018-03-16T12:28:50.429Z,19.48
2018-03-16T12:29:49.914Z,19.51
2018-03-16T12:30:49.925Z,19.48
2018-03-16T12:31:49.879Z,19.48
2018-03-16T12:32:49.901Z,19.52
2018-03-16T12:33:49.913Z,19.48
2018-03-16T12:34:49.889Z,19.49
2018-03-16T12:35:49.930Z,19.52
2018-03-16T12:36:49.906Z,19.49
2018-03-16T12:37:49.885Z,19.49
2018-03-16T12:38:49.916Z,19.52
2018-03-16T12:39:49.906Z,19.48
2018-03-16T12:40:49.888Z,19.47
2018-03-16T12:41:49.913Z,19.52
2018-03-16T12:42:49.911Z,19.48
2018-03-16T12:43:49.880Z,19.48
2018-03-16T12:44:49.919Z,19.52
2018-03-16T12:45:49.904Z,19.48
2018-03-16T12:46:49.873Z,19.48
2018-03-16T12:47:49.929Z,19.51
2018-03-16T12:48:49.901Z,19.48
2018-03-16T12:49:49.881Z,19.47
2018-03-16T12:50:49.904Z,19.52
2018-03-16T12:51:49.935Z,19.48
2018-03-16T12:52:49.872Z,19.48
2018-03-16T12:53:49.900Z,19.52
2018-03-16T12:54:49.907Z,19.49